Terminal Aerodrome Forecast
Issued by NWS

Home | Current Version | Previous Version | Text Only | Print | Product List | Glossary On
Versions: 1 2 3 4 5 6 7 8 9 10 11 12 13 14 15 16 17 18 19 20 21 22 23
000
FTUS46 KMTR 250300 AAA
TAFSFO
TAF AMD
KSFO 250311Z 2503/2606 16012KT P6SM SCT024 SCT180
     FM250500 16011KT P6SM SCT020 BKN150
     FM251100 16018G27KT P6SM -RA BKN040
     FM252100 22021G28KT P6SM -SHRA SCT040 BKN050
     FM260300 26008KT P6SM SCT050 BKN250=

USA.gov is the U.S. government's official web portal to all federal, state and local government web resources and services.